createdAt,value
2019-05-19T00:00:11.886Z,711
2019-05-19T00:01:14.035Z,711.6
2019-05-19T00:02:16.188Z,711.6
2019-05-19T00:03:18.350Z,711.5
2019-05-19T00:04:20.781Z,711.5
2019-05-19T00:05:22.922Z,711.2
2019-05-19T00:06:25.349Z,711.6
2019-05-19T00:07:27.504Z,711.6
2019-05-19T00:08:29.943Z,711.2
2019-05-19T00:09:32.116Z,711.4
2019-05-19T00:10:34.541Z,711.1
2019-05-19T00:11:36.403Z,710.8
2019-05-19T00:12:38.575Z,711.1
2019-05-19T00:13:40.929Z,711
2019-05-19T00:14:42.810Z,711.3
2019-05-19T00:15:44.690Z,710.9
2019-05-19T00:16:46.867Z,710.8
2019-05-19T00:17:49.021Z,710.8
2019-05-19T00:18:51.456Z,710.7
2019-05-19T00:19:53.886Z,710.8
2019-05-19T00:20:55.777Z,711.2
2019-05-19T00:21:58.213Z,710.9
2019-05-19T00:23:00.383Z,711.3
2019-05-19T00:24:02.532Z,710.9
2019-05-19T00:25:04.962Z,711.1
2019-05-19T00:26:07.135Z,711.2
2019-05-19T00:27:09.013Z,711.3
2019-05-19T00:28:11.438Z,711.5
2019-05-19T00:29:13.299Z,711.4
2019-05-19T00:30:15.166Z,711.7
2019-05-19T00:31:17.800Z,711.7
2019-05-19T00:32:20.224Z,711.5
2019-05-19T00:33:22.647Z,711.5
2019-05-19T00:34:24.806Z,711.1
2019-05-19T00:35:27.273Z,711.7
2019-05-19T00:36:29.699Z,711.5
2019-05-19T00:37:31.840Z,711.5
2019-05-19T00:38:34.270Z,711.8
2019-05-19T00:39:36.712Z,711.9
2019-05-19T00:40:39.143Z,711.8
2019-05-19T00:41:41.298Z,711.9
2019-05-19T00:42:43.723Z,711.9
2019-05-19T00:43:46.176Z,712.2
2019-05-19T00:44:48.335Z,712.3
2019-05-19T00:45:50.208Z,711.8
2019-05-19T00:46:52.643Z,712.2
2019-05-19T00:47:54.804Z,711.9
2019-05-19T00:48:56.974Z,711.6
2019-05-19T00:49:59.404Z,711.8
2019-05-19T00:51:01.566Z,711.3
2019-05-19T00:52:03.988Z,711.4
2019-05-19T00:53:06.131Z,711.5
2019-05-19T00:54:08.567Z,712
2019-05-19T00:55:11.154Z,711.4
2019-05-19T00:56:13.023Z,711.6
2019-05-19T00:57:15.467Z,711.4
2019-05-19T00:58:17.893Z,711.5
2019-05-19T00:59:20.054Z,711.5
2019-05-19T01:00:22.488Z,711.4
2019-05-19T01:01:24.654Z,711.6
2019-05-19T01:02:27.075Z,712
2019-05-19T01:03:29.238Z,711.3
2019-05-19T01:04:31.409Z,711.4
2019-05-19T01:05:33.558Z,711.4
2019-05-19T01:06:35.695Z,711.4
2019-05-19T01:07:37.844Z,711.3
2019-05-19T01:08:40.273Z,710.9
2019-05-19T01:09:42.715Z,711.3
2019-05-19T01:10:44.044Z,711.3
2019-05-19T01:11:46.216Z,711.3
2019-05-19T01:12:48.657Z,711
2019-05-19T01:13:51.088Z,711.5
2019-05-19T01:14:53.253Z,711.9
2019-05-19T01:15:55.691Z,711.6
2019-05-19T01:16:57.848Z,711.6
2019-05-19T01:18:00.017Z,711.3
2019-05-19T01:19:02.161Z,711.3
2019-05-19T01:20:04.588Z,711.4
2019-05-19T01:21:07.032Z,712
2019-05-19T01:22:09.193Z,711.3
2019-05-19T01:23:11.622Z,711.5
2019-05-19T01:24:14.065Z,711.1
2019-05-19T01:25:16.503Z,711.1
2019-05-19T01:26:18.679Z,711.4
2019-05-19T01:27:21.104Z,711.1
2019-05-19T01:28:23.548Z,711
2019-05-19T01:29:25.704Z,711.3
2019-05-19T01:30:27.886Z,711.7
2019-05-19T01:31:30.118Z,711.7
2019-05-19T01:32:32.553Z,711.9
2019-05-19T01:33:34.738Z,711.9
2019-05-19T01:34:37.167Z,711.4
2019-05-19T01:35:39.366Z,711.4
2019-05-19T01:36:41.785Z,711
2019-05-19T01:37:43.959Z,711.5
2019-05-19T01:38:46.371Z,710.8
2019-05-19T01:39:48.536Z,710.8
2019-05-19T01:40:50.975Z,710.8
2019-05-19T01:41:53.396Z,710.6
2019-05-19T01:42:55.551Z,710.2
2019-05-19T01:43:57.707Z,710.2
2019-05-19T01:44:59.571Z,709.9
2019-05-19T01:46:02.005Z,709.6
2019-05-19T01:47:04.155Z,709.7
2019-05-19T01:48:06.586Z,710.1
2019-05-19T01:49:09.048Z,710.2
2019-05-19T01:51:15.920Z,709.9
2019-05-19T01:52:18.352Z,710.1
2019-05-19T01:53:20.496Z,710.1
2019-05-19T01:54:22.657Z,709.8
2019-05-19T01:55:24.536Z,709.9
2019-05-19T01:56:26.681Z,710.1
2019-05-19T01:57:28.834Z,709.8
2019-05-19T01:58:30.978Z,709.5
2019-05-19T01:59:33.404Z,709.4
2019-05-19T02:00:35.567Z,709.2
2019-05-19T02:01:38.000Z,709
2019-05-19T02:02:40.442Z,709.5
2019-05-19T02:03:42.894Z,709
2019-05-19T02:04:45.054Z,708.7
2019-05-19T02:05:47.488Z,709.2
2019-05-19T02:06:49.939Z,709.2
2019-05-19T02:07:52.370Z,708.8
2019-05-19T02:08:54.497Z,708.9
2019-05-19T02:09:56.664Z,708.7
2019-05-19T02:10:58.818Z,708.8
2019-05-19T02:12:01.245Z,708.8
2019-05-19T02:14:08.650Z,708.7
2019-05-19T02:15:11.092Z,708.4
2019-05-19T02:16:13.520Z,708.4
2019-05-19T02:17:15.956Z,708.9
2019-05-19T02:18:18.391Z,708.6
2019-05-19T02:19:20.562Z,709.1
2019-05-19T02:21:27.958Z,709
2019-05-19T02:22:30.385Z,709.1
2019-05-19T02:23:33.413Z,708.9
2019-05-19T02:24:35.836Z,708.9
2019-05-19T02:25:37.738Z,709
2019-05-19T02:26:39.914Z,708.5
2019-05-19T02:27:42.064Z,708.7
2019-05-19T02:28:44.506Z,709
2019-05-19T02:29:46.946Z,709
2019-05-19T02:30:49.391Z,708.9
2019-05-19T02:31:51.255Z,708.7
2019-05-19T02:32:53.704Z,708
2019-05-19T02:33:56.138Z,708.4
2019-05-19T02:34:58.564Z,708.4
2019-05-19T02:36:00.725Z,707.7
2019-05-19T02:37:02.901Z,707.9
2019-05-19T02:38:05.079Z,707.8
2019-05-19T02:39:07.599Z,707.2
2019-05-19T02:40:09.779Z,707.6
2019-05-19T02:41:12.202Z,707.5
2019-05-19T02:42:14.641Z,707.3
2019-05-19T02:43:17.075Z,707.2
2019-05-19T02:44:18.982Z,707.2
2019-05-19T02:45:21.155Z,707.3
2019-05-19T02:46:23.323Z,707.1
2019-05-19T02:47:25.756Z,707.4
2019-05-19T02:48:28.176Z,706.9
2019-05-19T02:49:30.339Z,707.1
2019-05-19T02:51:38.956Z,707.1
2019-05-19T02:52:40.838Z,707.2
2019-05-19T02:53:42.988Z,707.1
2019-05-19T02:54:45.153Z,707.3
2019-05-19T02:55:47.309Z,707.4
2019-05-19T02:56:49.465Z,707.4
2019-05-19T02:57:51.898Z,707.4
2019-05-19T02:58:54.085Z,707.5
2019-05-19T02:59:56.519Z,707.1
2019-05-19T03:00:58.671Z,707.5
2019-05-19T03:02:01.127Z,707.4
2019-05-19T03:03:03.555Z,707.8
2019-05-19T03:04:05.714Z,707.9
2019-05-19T03:05:08.149Z,708
2019-05-19T03:06:10.564Z,707.9
2019-05-19T03:07:12.786Z,708.1
2019-05-19T03:08:14.944Z,708.2
2019-05-19T03:09:17.367Z,708.2
2019-05-19T03:10:19.796Z,708
2019-05-19T03:11:22.219Z,708
2019-05-19T03:12:24.372Z,708.5
2019-05-19T03:13:26.595Z,708.3
2019-05-19T03:14:29.137Z,708.4
2019-05-19T03:15:31.573Z,708.4
2019-05-19T03:16:34.033Z,708.1
2019-05-19T03:17:36.289Z,708.3
2019-05-19T03:18:38.455Z,708.3
2019-05-19T03:19:40.334Z,708.2
2019-05-19T03:20:42.780Z,708.2
2019-05-19T03:21:45.189Z,708
2019-05-19T03:22:47.337Z,708.4
2019-05-19T03:23:49.777Z,708.4
2019-05-19T03:24:51.952Z,708
2019-05-19T03:25:54.117Z,707.7
2019-05-19T03:26:56.285Z,707.8
2019-05-19T03:27:58.997Z,707.5
2019-05-19T03:29:01.437Z,707.6
2019-05-19T03:30:03.898Z,707.4
2019-05-19T03:31:06.352Z,707.1
2019-05-19T03:33:13.575Z,707.4
2019-05-19T03:34:16.000Z,707.4
2019-05-19T03:35:17.875Z,707.1
2019-05-19T03:36:20.039Z,707
2019-05-19T03:37:22.472Z,707.2
2019-05-19T03:38:24.901Z,706.9
2019-05-19T03:39:27.325Z,706.8
2019-05-19T03:40:29.229Z,706.5
2019-05-19T03:41:31.657Z,706.6
2019-05-19T03:42:33.556Z,706.5
2019-05-19T03:43:36.008Z,706.2
2019-05-19T03:44:38.441Z,706.7
2019-05-19T03:45:40.578Z,706.4
2019-05-19T03:46:42.729Z,706.1
2019-05-19T03:47:44.886Z,705.9
2019-05-19T03:48:47.309Z,706.2
2019-05-19T03:49:49.477Z,705.9
2019-05-19T03:50:51.921Z,705.7
2019-05-19T03:51:54.075Z,705.1
2019-05-19T03:52:56.501Z,706
2019-05-19T03:53:58.952Z,705.9
2019-05-19T03:55:01.381Z,705.9
2019-05-19T03:56:03.812Z,706
2019-05-19T03:57:05.963Z,706.5
2019-05-19T03:58:08.666Z,705.9
2019-05-19T03:59:11.091Z,706.6
2019-05-19T04:00:13.215Z,706.7
2019-05-19T04:01:15.364Z,706.2
2019-05-19T04:02:17.546Z,706.8
2019-05-19T04:03:19.691Z,706.7
2019-05-19T04:04:21.857Z,706.3
2019-05-19T04:05:24.009Z,706.2
2019-05-19T04:06:26.166Z,706.2
2019-05-19T04:07:28.323Z,706
2019-05-19T04:08:30.476Z,706
2019-05-19T04:09:32.643Z,705.9
2019-05-19T04:10:35.053Z,706.1
2019-05-19T04:11:37.496Z,705.8
2019-05-19T04:12:39.918Z,705.6
2019-05-19T04:13:42.363Z,705.5
2019-05-19T04:14:44.511Z,705.4
2019-05-19T04:15:47.014Z,705
2019-05-19T04:16:49.168Z,705
2019-05-19T04:17:51.601Z,705.3
2019-05-19T04:18:54.040Z,705
2019-05-19T04:19:56.464Z,705.1
2019-05-19T04:20:58.324Z,705
2019-05-19T04:22:00.501Z,705.3
2019-05-19T04:23:02.375Z,705.1
2019-05-19T04:24:04.936Z,705.3
2019-05-19T04:25:06.817Z,705.3
2019-05-19T04:26:08.971Z,705
2019-05-19T04:27:11.486Z,705.4
2019-05-19T04:28:13.915Z,705.2
2019-05-19T04:29:16.073Z,705.3
2019-05-19T04:30:18.500Z,704.9
2019-05-19T04:31:20.658Z,705.1
2019-05-19T04:32:22.818Z,704.9
2019-05-19T04:33:25.252Z,704.9
2019-05-19T04:34:27.681Z,705
2019-05-19T04:35:29.828Z,704.7
2019-05-19T04:36:31.986Z,704.9
2019-05-19T04:37:34.160Z,704.6
2019-05-19T04:38:36.325Z,704.6
2019-05-19T04:39:38.736Z,704.6
2019-05-19T04:40:40.911Z,704.2
2019-05-19T04:41:43.075Z,704.1
2019-05-19T04:42:45.269Z,704.4
2019-05-19T04:43:47.427Z,704.3
2019-05-19T04:44:49.565Z,704.3
2019-05-19T04:45:51.436Z,704.7
2019-05-19T04:46:53.861Z,704.5
2019-05-19T04:47:56.010Z,704.1
2019-05-19T04:48:58.443Z,704.6
2019-05-19T04:50:00.874Z,704.3
2019-05-19T04:51:03.299Z,704.3
2019-05-19T04:53:10.718Z,704.3
2019-05-19T04:54:12.894Z,704.4
2019-05-19T04:55:15.326Z,704.5
2019-05-19T04:57:22.783Z,705
2019-05-19T04:58:24.914Z,704.7
2019-05-19T04:59:27.388Z,704.5
2019-05-19T05:00:29.812Z,704.6
2019-05-19T05:01:31.957Z,704.5
2019-05-19T05:02:34.384Z,704.3
2019-05-19T05:03:36.831Z,704.4
2019-05-19T05:04:39.263Z,704.2
2019-05-19T05:05:41.692Z,704.2
2019-05-19T05:06:44.730Z,703.9
2019-05-19T05:07:47.163Z,704.4
2019-05-19T05:08:49.319Z,704.3
2019-05-19T05:09:51.741Z,704.3
2019-05-19T05:10:53.886Z,704.6
2019-05-19T05:11:56.018Z,704.4
2019-05-19T05:12:58.444Z,704.2
2019-05-19T05:14:00.608Z,704.4
2019-05-19T05:15:02.772Z,704.2
2019-05-19T05:16:05.202Z,704.2
2019-05-19T05:17:07.636Z,704.1
2019-05-19T05:18:10.084Z,704.4
2019-05-19T05:19:12.566Z,704
2019-05-19T05:20:14.981Z,704.1
2019-05-19T05:21:17.406Z,704.3
2019-05-19T05:23:24.548Z,704.5
2019-05-19T05:25:31.965Z,704.7
2019-05-19T05:26:34.404Z,704.7
2019-05-19T05:27:36.825Z,704.7
2019-05-19T05:28:38.956Z,704.5
2019-05-19T05:29:41.380Z,704.8
2019-05-19T05:30:42.964Z,704.8
2019-05-19T05:31:45.402Z,704.6
2019-05-19T05:32:47.870Z,704.6
2019-05-19T05:33:50.280Z,704.1
2019-05-19T05:34:52.726Z,704.8
2019-05-19T05:35:55.152Z,703.9
2019-05-19T05:36:57.292Z,703.9
2019-05-19T05:37:59.442Z,704.1
2019-05-19T05:39:01.876Z,703.9
2019-05-19T05:40:04.106Z,704.1
2019-05-19T05:41:06.030Z,704
2019-05-19T05:42:08.182Z,704
2019-05-19T05:43:10.602Z,704.5
2019-05-19T05:44:12.762Z,704.3
2019-05-19T05:45:15.225Z,704.4
2019-05-19T05:46:17.412Z,704.2
2019-05-19T05:47:19.302Z,703.8
2019-05-19T05:48:21.744Z,703.8
2019-05-19T05:49:24.178Z,704
2019-05-19T05:50:26.354Z,704.3
2019-05-19T05:51:28.786Z,703.8
2019-05-19T05:53:36.216Z,704
2019-05-19T05:54:38.662Z,703.9
2019-05-19T05:55:41.096Z,703.8
2019-05-19T05:56:43.538Z,703.8
2019-05-19T05:57:45.960Z,704.3
2019-05-19T05:58:48.595Z,703.5
2019-05-19T05:59:51.022Z,703.6
2019-05-19T06:00:53.481Z,703.6
2019-05-19T06:01:55.620Z,703.5
2019-05-19T06:02:57.757Z,704.1
2019-05-19T06:04:00.184Z,703.6
2019-05-19T06:05:02.610Z,703.7
2019-05-19T06:06:05.036Z,703.6
2019-05-19T06:07:07.459Z,704
2019-05-19T06:08:09.595Z,703.7
2019-05-19T06:09:12.021Z,703.8
2019-05-19T06:10:14.444Z,703.7
2019-05-19T06:11:16.862Z,704.1
2019-05-19T06:12:19.303Z,704.1
2019-05-19T06:13:21.445Z,704.1
2019-05-19T06:14:24.708Z,704
2019-05-19T06:15:26.599Z,704
2019-05-19T06:16:29.103Z,704.7
2019-05-19T06:17:31.017Z,704.4
2019-05-19T06:18:35.371Z,704.3
2019-05-19T06:19:37.580Z,704.6
2019-05-19T06:20:39.998Z,704.4
2019-05-19T06:21:42.754Z,704.5
2019-05-19T06:23:50.472Z,704.6
2019-05-19T06:24:52.642Z,704.4
2019-05-19T06:25:54.781Z,704.5
2019-05-19T06:26:56.917Z,704.1
2019-05-19T06:28:01.477Z,704
2019-05-19T06:29:03.934Z,703.9
2019-05-19T06:31:12.570Z,703.9
2019-05-19T06:32:14.726Z,703.7
2019-05-19T06:33:16.881Z,704
2019-05-19T06:34:19.021Z,704.1
2019-05-19T06:35:21.647Z,703.9
2019-05-19T06:36:24.075Z,703.7
2019-05-19T06:37:26.242Z,703.4
2019-05-19T06:38:29.085Z,703.4
2019-05-19T06:39:31.503Z,703.4
2019-05-19T06:40:33.927Z,703.2
2019-05-19T06:41:36.092Z,702.9
2019-05-19T06:42:37.954Z,703.1
2019-05-19T06:43:40.393Z,703.3
2019-05-19T06:44:42.822Z,703.7
2019-05-19T06:45:45.268Z,703.5
2019-05-19T06:46:47.709Z,703.7
2019-05-19T06:47:49.843Z,703.9
2019-05-19T06:48:52.256Z,703.8
2019-05-19T06:49:54.691Z,703.6
2019-05-19T06:50:57.130Z,703.8
2019-05-19T06:51:59.548Z,703.6
2019-05-19T06:54:06.714Z,703.8
2019-05-19T06:55:09.147Z,703.5
2019-05-19T06:56:11.572Z,703.8
2019-05-19T06:57:14.422Z,703.4
2019-05-19T06:58:16.398Z,703.6
2019-05-19T06:59:18.701Z,704
2019-05-19T07:00:21.139Z,703.9
2019-05-19T07:01:23.573Z,703.9
2019-05-19T07:02:25.994Z,704.3
2019-05-19T07:03:28.433Z,704.5
2019-05-19T07:04:30.334Z,704.8
2019-05-19T07:05:33.548Z,705.2
2019-05-19T07:06:36.309Z,705.4
2019-05-19T07:07:39.332Z,705.1
2019-05-19T07:08:41.776Z,705.4
2019-05-19T07:10:49.192Z,705.3
2019-05-19T07:11:51.353Z,705.6
2019-05-19T07:12:53.784Z,705.5
2019-05-19T07:13:56.217Z,705.8
2019-05-19T07:14:58.368Z,705.7
2019-05-19T07:16:00.811Z,705.9
2019-05-19T07:17:03.279Z,705.9
2019-05-19T07:18:05.734Z,705.7
2019-05-19T07:19:07.938Z,705.8
2019-05-19T07:20:10.400Z,705.7
2019-05-19T07:21:12.833Z,705.9
2019-05-19T07:22:14.999Z,705.8
2019-05-19T07:24:22.631Z,705.6
2019-05-19T07:25:25.076Z,705.6
2019-05-19T07:26:27.556Z,705.4
2019-05-19T07:27:30.332Z,705.7
2019-05-19T07:28:32.774Z,706
2019-05-19T07:29:35.202Z,706
2019-05-19T07:30:37.712Z,706.4
2019-05-19T07:31:40.143Z,706
2019-05-19T07:32:42.565Z,706.3
2019-05-19T07:33:44.722Z,706.2
2019-05-19T07:34:47.167Z,706.3
2019-05-19T07:35:49.336Z,707
2019-05-19T07:36:51.482Z,707
2019-05-19T07:37:53.334Z,706.8
2019-05-19T07:38:55.774Z,706.9
2019-05-19T07:39:58.203Z,706.8
2019-05-19T07:41:00.626Z,707.1
2019-05-19T07:42:03.056Z,707.4
2019-05-19T07:43:05.482Z,707
2019-05-19T07:44:07.911Z,706.9
2019-05-19T07:45:10.063Z,707.1
2019-05-19T07:46:12.526Z,706.9
2019-05-19T07:47:14.657Z,706.9
2019-05-19T07:48:16.792Z,707.3
2019-05-19T07:49:19.258Z,706.6
2019-05-19T07:50:21.415Z,706.6
2019-05-19T07:51:24.487Z,706.6
2019-05-19T07:52:26.927Z,706.7
2019-05-19T07:54:34.824Z,707
2019-05-19T07:55:37.272Z,706.8
2019-05-19T07:56:39.705Z,707.1
2019-05-19T07:57:41.883Z,706.5
2019-05-19T07:58:44.047Z,706.5
2019-05-19T07:59:46.213Z,706.1
2019-05-19T08:00:48.085Z,706.1
2019-05-19T08:01:50.709Z,706.5
2019-05-19T08:02:53.197Z,706.4
2019-05-19T08:03:55.641Z,706.6
2019-05-19T08:04:58.075Z,706.2
2019-05-19T08:06:00.226Z,705.7
2019-05-19T08:07:02.659Z,706
2019-05-19T08:08:05.668Z,705.8
2019-05-19T08:09:07.284Z,706.2
2019-05-19T08:10:09.733Z,705.9
2019-05-19T08:11:12.245Z,706.3
2019-05-19T08:12:14.677Z,706
2019-05-19T08:13:17.108Z,706.2
2019-05-19T08:14:18.972Z,705.9
2019-05-19T08:15:21.141Z,705.7
2019-05-19T08:16:23.615Z,705.8
2019-05-19T08:17:27.989Z,705.7
2019-05-19T08:18:29.910Z,705.9
2019-05-19T08:19:32.071Z,705.7
2019-05-19T08:20:34.503Z,705.1
2019-05-19T08:21:36.935Z,705.1
2019-05-19T08:22:39.097Z,705.7
2019-05-19T08:23:41.553Z,705.1
2019-05-19T08:24:43.414Z,705
2019-05-19T08:25:45.865Z,705.7
2019-05-19T08:26:48.298Z,705.3
2019-05-19T08:27:50.744Z,705
2019-05-19T08:28:53.166Z,705.5
2019-05-19T08:29:55.391Z,705.3
2019-05-19T08:30:57.842Z,705.2
2019-05-19T08:32:00.005Z,704.9
2019-05-19T08:33:02.450Z,705.1
2019-05-19T08:34:04.915Z,705.7
2019-05-19T08:35:07.353Z,705
2019-05-19T08:36:09.766Z,705.2
2019-05-19T08:37:12.211Z,704.9
2019-05-19T08:38:14.345Z,705.3
2019-05-19T08:39:16.771Z,705.1
2019-05-19T08:40:18.675Z,705
2019-05-19T08:41:21.126Z,705.2
2019-05-19T08:42:23.045Z,704.9
2019-05-19T08:43:25.478Z,705.6
2019-05-19T08:44:27.908Z,704.8
2019-05-19T08:45:30.073Z,705.5
2019-05-19T08:46:32.512Z,705.3
2019-05-19T08:47:34.671Z,705.5
2019-05-19T08:48:37.124Z,705.4
2019-05-19T08:49:39.545Z,705.7
2019-05-19T08:50:41.704Z,706
2019-05-19T08:51:44.907Z,705.7
2019-05-19T08:52:46.782Z,706.2
2019-05-19T08:53:48.923Z,706.1
2019-05-19T08:54:51.360Z,705.8
2019-05-19T08:55:53.797Z,705.5
2019-05-19T08:56:56.210Z,705.7
2019-05-19T08:57:58.690Z,706.2
2019-05-19T08:59:00.825Z,706
2019-05-19T09:00:03.436Z,706
2019-05-19T09:01:05.971Z,706.1
2019-05-19T09:02:08.149Z,705.9
2019-05-19T09:03:10.573Z,706.1
2019-05-19T09:04:13.003Z,705.8
2019-05-19T09:05:15.436Z,705.9
2019-05-19T09:06:17.585Z,706.1
2019-05-19T09:07:19.758Z,706.3
2019-05-19T09:08:21.985Z,706.2
2019-05-19T09:09:24.150Z,706.3
2019-05-19T09:10:26.326Z,706.2
2019-05-19T09:11:28.821Z,706.6
2019-05-19T09:12:31.072Z,706.6
2019-05-19T09:13:33.527Z,706.5
2019-05-19T09:14:36.557Z,706.4
2019-05-19T09:15:38.983Z,706.3
2019-05-19T09:16:41.135Z,706.1
2019-05-19T09:17:43.287Z,706.2
2019-05-19T09:18:45.441Z,706.2
2019-05-19T09:19:47.600Z,705.9
2019-05-19T09:20:49.731Z,706
2019-05-19T09:21:52.155Z,706.3
2019-05-19T09:22:54.587Z,706.5
2019-05-19T09:23:57.270Z,706.5
2019-05-19T09:24:59.774Z,706.6
2019-05-19T09:26:01.930Z,707.2
2019-05-19T09:27:04.109Z,707.4
2019-05-19T09:28:06.541Z,707.1
2019-05-19T09:29:08.972Z,707.4
2019-05-19T09:30:11.393Z,707.6
2019-05-19T09:31:13.271Z,707.7
2019-05-19T09:32:15.701Z,707.8
2019-05-19T09:33:17.863Z,707.6
2019-05-19T09:34:20.025Z,707.9
2019-05-19T09:35:22.462Z,708
2019-05-19T09:36:24.926Z,708
2019-05-19T09:37:27.109Z,707.9
2019-05-19T09:38:29.535Z,707.8
2019-05-19T09:39:32.008Z,707.9
2019-05-19T09:40:34.473Z,707.9
2019-05-19T09:41:36.923Z,708
2019-05-19T09:42:39.084Z,708
2019-05-19T09:43:41.179Z,708.2
2019-05-19T09:44:43.625Z,708.2
2019-05-19T09:45:46.095Z,708.6
2019-05-19T09:46:48.524Z,708.6
2019-05-19T09:47:50.746Z,708.5
2019-05-19T09:48:53.287Z,709
2019-05-19T09:49:55.443Z,708.7
2019-05-19T09:50:57.687Z,709.1
2019-05-19T09:52:00.119Z,709.4
2019-05-19T09:53:02.255Z,709.6
2019-05-19T09:54:04.407Z,709.2
2019-05-19T09:55:07.063Z,708.9
2019-05-19T09:56:09.522Z,710
2019-05-19T09:57:12.021Z,709.3
2019-05-19T09:59:19.461Z,710.1
2019-05-19T10:00:21.909Z,710.6
2019-05-19T10:01:24.078Z,710.8
2019-05-19T10:02:26.247Z,710.4
2019-05-19T10:03:28.153Z,710.6
2019-05-19T10:04:30.024Z,711
2019-05-19T10:05:32.204Z,711.3
2019-05-19T10:06:34.656Z,711.4
2019-05-19T10:07:36.556Z,711.1
2019-05-19T10:08:39.001Z,711.5
2019-05-19T10:09:41.433Z,711.8
2019-05-19T10:10:43.607Z,711.4
2019-05-19T10:11:46.044Z,711.7
2019-05-19T10:12:48.476Z,711.5
2019-05-19T10:13:50.677Z,711.6
2019-05-19T10:14:52.833Z,711.1
2019-05-19T10:15:55.263Z,711.4
2019-05-19T10:16:57.683Z,711.5
2019-05-19T10:17:59.540Z,711.5
2019-05-19T10:19:01.977Z,711.6
2019-05-19T10:20:04.357Z,711.4
2019-05-19T10:21:06.814Z,711.4
2019-05-19T10:22:08.991Z,711.7
2019-05-19T10:23:10.879Z,711.5
2019-05-19T10:24:13.118Z,711.3
2019-05-19T10:26:20.406Z,711.5
2019-05-19T10:27:23.811Z,711.5
2019-05-19T10:28:26.251Z,711.6
2019-05-19T10:29:28.358Z,711.8
2019-05-19T10:30:30.870Z,711.5
2019-05-19T10:31:33.077Z,711.6
2019-05-19T10:32:35.525Z,711.8
2019-05-19T10:33:37.689Z,711.7
2019-05-19T10:34:40.131Z,712.2
2019-05-19T10:35:42.564Z,712.1
2019-05-19T10:36:45.018Z,712.2
2019-05-19T10:37:47.452Z,712.1
2019-05-19T10:38:49.595Z,712
2019-05-19T10:39:51.760Z,711.7
2019-05-19T10:40:53.637Z,712.2
2019-05-19T10:41:56.282Z,712.2
2019-05-19T10:42:58.732Z,712.4
2019-05-19T10:44:02.799Z,712.3
2019-05-19T10:45:04.958Z,712.9
2019-05-19T10:46:07.113Z,712.8
2019-05-19T10:47:09.285Z,712.8
2019-05-19T10:48:11.724Z,712.6
2019-05-19T10:49:13.609Z,713.3
2019-05-19T10:50:16.038Z,712.9
2019-05-19T10:51:18.475Z,713
2019-05-19T10:52:21.043Z,712.8
2019-05-19T10:53:23.474Z,712.8
2019-05-19T10:54:25.936Z,713.3
2019-05-19T10:56:33.075Z,713.2
2019-05-19T10:57:35.513Z,713.7
2019-05-19T10:58:37.675Z,713.5
2019-05-19T10:59:40.171Z,713.9
2019-05-19T11:00:42.598Z,714.1
2019-05-19T11:01:44.749Z,714.2
2019-05-19T11:02:46.633Z,714.5
2019-05-19T11:03:48.815Z,714.6
2019-05-19T11:04:50.981Z,714.7
2019-05-19T11:05:53.175Z,714.9
2019-05-19T11:06:55.603Z,714.4
2019-05-19T11:07:58.037Z,715
2019-05-19T11:09:00.481Z,715.3
2019-05-19T11:10:02.902Z,714.6
2019-05-19T11:11:05.043Z,714.8
2019-05-19T11:12:07.468Z,714.6
2019-05-19T11:13:09.631Z,715.1
2019-05-19T11:14:12.066Z,715
2019-05-19T11:15:14.498Z,715.3
2019-05-19T11:16:16.918Z,715.3
2019-05-19T11:17:18.784Z,715.2
2019-05-19T11:18:21.247Z,715.3
2019-05-19T11:19:23.409Z,715.4
2019-05-19T11:20:25.841Z,715.1
2019-05-19T11:21:28.002Z,714.7
2019-05-19T11:22:29.884Z,715.1
2019-05-19T11:23:32.327Z,715
2019-05-19T11:24:34.498Z,714.9
2019-05-19T11:26:42.571Z,715.6
2019-05-19T11:27:45.009Z,715
2019-05-19T11:28:47.148Z,715.4
2019-05-19T11:29:49.580Z,715.5
2019-05-19T11:30:51.775Z,715.7
2019-05-19T11:31:54.211Z,715.9
2019-05-19T11:32:56.634Z,715.6
2019-05-19T11:33:58.772Z,715.6
2019-05-19T11:35:01.236Z,715.9
2019-05-19T11:36:03.843Z,716.1
2019-05-19T11:38:11.252Z,716.4
2019-05-19T11:39:14.215Z,716.1
2019-05-19T11:40:16.399Z,716.4
2019-05-19T11:41:18.542Z,716.3
2019-05-19T11:42:20.135Z,716.3
2019-05-19T11:43:22.297Z,716.1
2019-05-19T11:44:24.715Z,716.6
2019-05-19T11:45:27.149Z,716.4
2019-05-19T11:46:29.576Z,716.6
2019-05-19T11:47:31.725Z,716.5
2019-05-19T11:48:34.163Z,716.7
2019-05-19T11:49:36.340Z,717.1
2019-05-19T11:51:44.263Z,716.8
2019-05-19T11:52:46.718Z,716.7
2019-05-19T11:53:48.881Z,716.7
2019-05-19T11:54:51.043Z,716.9
2019-05-19T11:56:58.215Z,717.3
2019-05-19T11:58:00.655Z,717.3
2019-05-19T11:59:03.155Z,717.1
2019-05-19T12:00:05.615Z,717.6
2019-05-19T12:01:08.058Z,717.4
2019-05-19T12:02:10.487Z,717.8
2019-05-19T12:03:12.925Z,717.5
2019-05-19T12:04:14.823Z,717.7
2019-05-19T12:05:16.988Z,717.6
2019-05-19T12:06:19.143Z,717.9
2019-05-19T12:07:21.286Z,718.1
2019-05-19T12:08:23.721Z,718
2019-05-19T12:09:25.845Z,717.7
2019-05-19T12:10:28.015Z,717.5
2019-05-19T12:11:30.171Z,717.8
2019-05-19T12:12:32.643Z,717.6
2019-05-19T12:13:36.523Z,717.8
2019-05-19T12:14:38.689Z,717.5
2019-05-19T12:15:40.587Z,717.8
2019-05-19T12:16:43.158Z,717.9
2019-05-19T12:17:45.318Z,717.5
2019-05-19T12:18:47.747Z,718
2019-05-19T12:19:50.178Z,718
2019-05-19T12:20:52.617Z,717.7
2019-05-19T12:21:55.044Z,717.7
2019-05-19T12:22:57.534Z,717.8
2019-05-19T12:23:59.983Z,717.8
2019-05-19T12:25:02.405Z,718.2
2019-05-19T12:26:04.834Z,718.4
2019-05-19T12:27:07.280Z,718.1
2019-05-19T12:28:09.714Z,718.4
2019-05-19T12:29:11.883Z,718.4
2019-05-19T12:30:14.299Z,718.6
2019-05-19T12:31:16.763Z,718.6
2019-05-19T12:32:19.259Z,718.4
2019-05-19T12:33:21.735Z,718.8
2019-05-19T12:34:23.622Z,718.7
2019-05-19T12:35:26.060Z,718.6
2019-05-19T12:36:28.499Z,718.7
2019-05-19T12:37:30.931Z,718.8
2019-05-19T12:38:33.364Z,719
2019-05-19T12:39:35.879Z,719.2
2019-05-19T12:40:37.757Z,719.4
2019-05-19T12:41:40.187Z,719
2019-05-19T12:42:42.626Z,719.4
2019-05-19T12:43:44.777Z,719.9
2019-05-19T12:44:47.212Z,720.1
2019-05-19T12:45:49.467Z,719.2
2019-05-19T12:46:51.902Z,719.3
2019-05-19T12:47:54.342Z,719.7
2019-05-19T12:48:56.525Z,719.5
2019-05-19T12:49:59.243Z,720.1
2019-05-19T12:51:01.785Z,720.3
2019-05-19T12:52:03.983Z,720.3
2019-05-19T12:53:06.503Z,720.1
2019-05-19T12:54:08.675Z,720.1
2019-05-19T12:55:10.904Z,720.3
2019-05-19T12:56:13.337Z,720
2019-05-19T12:57:15.769Z,720.1
2019-05-19T12:58:18.325Z,719.9
2019-05-19T12:59:20.803Z,720.1
2019-05-19T13:00:23.247Z,720.5
2019-05-19T13:01:25.680Z,721.1
2019-05-19T13:02:27.555Z,720.9
2019-05-19T13:03:29.404Z,721
2019-05-19T13:04:31.838Z,721.1
2019-05-19T13:05:34.261Z,721.6
2019-05-19T13:06:36.419Z,721.3
2019-05-19T13:07:38.851Z,721.7
2019-05-19T13:08:41.006Z,721.5
2019-05-19T13:09:43.436Z,721.2
2019-05-19T13:10:45.860Z,721.3
2019-05-19T13:11:47.998Z,721.4
2019-05-19T13:12:50.438Z,721.5
2019-05-19T13:13:52.608Z,721.5
2019-05-19T13:14:54.765Z,721.6
2019-05-19T13:15:57.205Z,721.7
2019-05-19T13:16:59.382Z,721.5
2019-05-19T13:18:01.515Z,721.5
2019-05-19T13:19:03.977Z,721.7
2019-05-19T13:20:06.337Z,722.3
2019-05-19T13:21:08.485Z,722.2
2019-05-19T13:22:10.615Z,722.5
2019-05-19T13:23:12.777Z,722.2
2019-05-19T13:24:15.202Z,722.6
2019-05-19T13:25:17.346Z,722.4
2019-05-19T13:26:19.785Z,722.2
2019-05-19T13:27:22.214Z,722.4
2019-05-19T13:28:24.680Z,722.6
2019-05-19T13:29:26.595Z,723.1
2019-05-19T13:30:29.109Z,723.2
2019-05-19T13:31:31.533Z,723.1
2019-05-19T13:32:33.967Z,722.9
2019-05-19T13:33:36.137Z,722.9
2019-05-19T13:34:38.574Z,723.1
2019-05-19T13:35:40.998Z,723.2
2019-05-19T13:36:43.163Z,723.1
2019-05-19T13:37:45.591Z,723.5
2019-05-19T13:38:47.207Z,723.2
2019-05-19T13:39:49.639Z,723.2
2019-05-19T13:40:52.067Z,723.5
2019-05-19T13:41:54.505Z,723.6
2019-05-19T13:42:56.934Z,723.4
2019-05-19T13:45:04.079Z,724.2
2019-05-19T13:46:06.525Z,723.7
2019-05-19T13:47:09.559Z,724.2
2019-05-19T13:48:11.724Z,724.7
2019-05-19T13:49:13.617Z,724.8
2019-05-19T13:50:15.797Z,724.5
2019-05-19T13:51:17.951Z,724.7
2019-05-19T13:52:20.231Z,725.1
2019-05-19T13:53:22.668Z,725.1